Albany Township, Maine
Current Conditions -  °F | °C
As of 7:52 PM on Saturday 25 Oct 2014 (Local Time) from KBML Reporting Station
Overcast Overcast  
Wind Chill: 48°   Ceiling: 7000
Heat Index: 48°   Visibility: 10mi
Dew Point: 45°   Wind: 0mph
Humidity: 89%   Direction: NA
Pressure: 29.51"   Gusts: NA
Location:  44.3718°N, 70.8421°W
Report Text: KBML 252352Z AUTO 00000KT 10SM FEW060 BKN070 OVC090 09/07 A2951 RMK AO2 RAB25E47 SLP000 P0000 60000 T00890072 10144 20089 58017
Loading
Personal Weather Stations






























Interactive Weather Map New forecast layout! Learn more

10-Day Weather Forecast

Advertisements
Track Severe Weather on mobile